sensor_id;sensor_type;location;lat;lon;timestamp;P1;durP1;ratioP1;P2;durP2;ratioP2
21181;SDS011;10749;46.296;7.524;2023-11-19T00:02:06;11.90;;;7.50;;
21181;SDS011;10749;46.296;7.524;2023-11-19T00:04:33;8.17;;;6.57;;
21181;SDS011;10749;46.296;7.524;2023-11-19T00:07:01;9.00;;;6.80;;
21181;SDS011;10749;46.296;7.524;2023-11-19T00:09:29;10.17;;;7.23;;
21181;SDS011;10749;46.296;7.524;2023-11-19T00:11:54;15.37;;;9.63;;
21181;SDS011;10749;46.296;7.524;2023-11-19T00:14:20;23.30;;;11.10;;
21181;SDS011;10749;46.296;7.524;2023-11-19T00:16:45;9.90;;;7.10;;
21181;SDS011;10749;46.296;7.524;2023-11-19T00:19:11;7.07;;;5.83;;
21181;SDS011;10749;46.296;7.524;2023-11-19T00:21:36;8.87;;;6.53;;
21181;SDS011;10749;46.296;7.524;2023-11-19T00:24:02;9.77;;;7.07;;
21181;SDS011;10749;46.296;7.524;2023-11-19T00:26:28;9.13;;;6.53;;
21181;SDS011;10749;46.296;7.524;2023-11-19T00:28:54;9.03;;;6.80;;
21181;SDS011;10749;46.296;7.524;2023-11-19T00:31:21;8.13;;;6.20;;
21181;SDS011;10749;46.296;7.524;2023-11-19T00:33:46;9.63;;;6.93;;
21181;SDS011;10749;46.296;7.524;2023-11-19T00:36:11;10.90;;;6.63;;
21181;SDS011;10749;46.296;7.524;2023-11-19T00:38:37;10.03;;;7.13;;
21181;SDS011;10749;46.296;7.524;2023-11-19T00:41:02;9.83;;;7.13;;
21181;SDS011;10749;46.296;7.524;2023-11-19T00:43:28;8.47;;;6.80;;
21181;SDS011;10749;46.296;7.524;2023-11-19T00:45:54;9.83;;;7.50;;
21181;SDS011;10749;46.296;7.524;2023-11-19T00:48:19;10.93;;;7.30;;
21181;SDS011;10749;46.296;7.524;2023-11-19T00:50:44;9.50;;;7.20;;
21181;SDS011;10749;46.296;7.524;2023-11-19T00:53:10;11.73;;;8.87;;
21181;SDS011;10749;46.296;7.524;2023-11-19T00:55:36;10.40;;;7.33;;
21181;SDS011;10749;46.296;7.524;2023-11-19T00:58:01;10.47;;;7.33;;
21181;SDS011;10749;46.296;7.524;2023-11-19T01:00:28;10.57;;;8.30;;
21181;SDS011;10749;46.296;7.524;2023-11-19T01:02:53;10.80;;;8.00;;
21181;SDS011;10749;46.296;7.524;2023-11-19T01:05:19;9.83;;;7.27;;
21181;SDS011;10749;46.296;7.524;2023-11-19T01:07:48;9.07;;;7.33;;
21181;SDS011;10749;46.296;7.524;2023-11-19T01:10:14;9.37;;;6.97;;
21181;SDS011;10749;46.296;7.524;2023-11-19T01:12:41;10.90;;;6.60;;
21181;SDS011;10749;46.296;7.524;2023-11-19T01:15:07;9.53;;;6.53;;
21181;SDS011;10749;46.296;7.524;2023-11-19T01:17:32;10.40;;;6.97;;
21181;SDS011;10749;46.296;7.524;2023-11-19T01:19:58;9.70;;;7.33;;
21181;SDS011;10749;46.296;7.524;2023-11-19T01:22:23;9.40;;;7.57;;
21181;SDS011;10749;46.296;7.524;2023-11-19T01:24:48;8.30;;;6.70;;
21181;SDS011;10749;46.296;7.524;2023-11-19T01:27:14;9.63;;;7.17;;
21181;SDS011;10749;46.296;7.524;2023-11-19T01:29:39;8.90;;;6.83;;
21181;SDS011;10749;46.296;7.524;2023-11-19T01:32:04;7.63;;;6.00;;
21181;SDS011;10749;46.296;7.524;2023-11-19T01:34:30;8.27;;;6.00;;
21181;SDS011;10749;46.296;7.524;2023-11-19T01:36:55;7.27;;;5.67;;
21181;SDS011;10749;46.296;7.524;2023-11-19T01:39:20;9.00;;;6.23;;
21181;SDS011;10749;46.296;7.524;2023-11-19T01:41:46;8.53;;;6.10;;
21181;SDS011;10749;46.296;7.524;2023-11-19T01:44:12;7.37;;;5.83;;
21181;SDS011;10749;46.296;7.524;2023-11-19T01:46:37;7.33;;;5.80;;
21181;SDS011;10749;46.296;7.524;2023-11-19T01:49:05;8.53;;;5.53;;
21181;SDS011;10749;46.296;7.524;2023-11-19T01:51:31;7.03;;;5.57;;
21181;SDS011;10749;46.296;7.524;2023-11-19T01:53:57;7.37;;;5.90;;
21181;SDS011;10749;46.296;7.524;2023-11-19T01:56:23;6.60;;;5.73;;
21181;SDS011;10749;46.296;7.524;2023-11-19T01:58:49;7.33;;;5.70;;
21181;SDS011;10749;46.296;7.524;2023-11-19T02:01:15;8.03;;;6.13;;
21181;SDS011;10749;46.296;7.524;2023-11-19T02:03:40;7.13;;;5.43;;
21181;SDS011;10749;46.296;7.524;2023-11-19T02:06:06;7.43;;;5.87;;
21181;SDS011;10749;46.296;7.524;2023-11-19T02:08:32;7.83;;;5.83;;
21181;SDS011;10749;46.296;7.524;2023-11-19T02:10:57;6.07;;;5.13;;
21181;SDS011;10749;46.296;7.524;2023-11-19T02:13:24;7.00;;;5.83;;
21181;SDS011;10749;46.296;7.524;2023-11-19T02:15:50;7.00;;;5.50;;
21181;SDS011;10749;46.296;7.524;2023-11-19T02:18:22;5.93;;;4.90;;
21181;SDS011;10749;46.296;7.524;2023-11-19T02:20:52;6.57;;;5.17;;
21181;SDS011;10749;46.296;7.524;2023-11-19T02:23:19;9.70;;;6.20;;
21181;SDS011;10749;46.296;7.524;2023-11-19T02:28:25;7.23;;;6.27;;
21181;SDS011;10749;46.296;7.524;2023-11-19T02:30:50;9.37;;;7.20;;
21181;SDS011;10749;46.296;7.524;2023-11-19T02:33:16;9.43;;;6.97;;
21181;SDS011;10749;46.296;7.524;2023-11-19T02:35:41;7.60;;;6.60;;
21181;SDS011;10749;46.296;7.524;2023-11-19T02:38:06;7.53;;;5.93;;
21181;SDS011;10749;46.296;7.524;2023-11-19T02:40:32;8.90;;;6.50;;
21181;SDS011;10749;46.296;7.524;2023-11-19T02:42:58;8.30;;;6.60;;
21181;SDS011;10749;46.296;7.524;2023-11-19T02:45:23;7.43;;;5.80;;
21181;SDS011;10749;46.296;7.524;2023-11-19T02:47:50;10.37;;;7.40;;
21181;SDS011;10749;46.296;7.524;2023-11-19T02:50:16;10.17;;;7.23;;
21181;SDS011;10749;46.296;7.524;2023-11-19T02:52:49;8.13;;;5.83;;
21181;SDS011;10749;46.296;7.524;2023-11-19T02:55:16;8.70;;;6.70;;
21181;SDS011;10749;46.296;7.524;2023-11-19T02:57:42;7.87;;;6.33;;
21181;SDS011;10749;46.296;7.524;2023-11-19T03:00:19;8.37;;;6.13;;
21181;SDS011;10749;46.296;7.524;2023-11-19T03:02:50;8.27;;;5.83;;
21181;SDS011;10749;46.296;7.524;2023-11-19T03:05:25;8.87;;;6.43;;
21181;SDS011;10749;46.296;7.524;2023-11-19T03:07:52;7.77;;;6.10;;
21181;SDS011;10749;46.296;7.524;2023-11-19T03:10:17;7.20;;;6.23;;
21181;SDS011;10749;46.296;7.524;2023-11-19T03:12:44;9.13;;;6.67;;
21181;SDS011;10749;46.296;7.524;2023-11-19T03:15:10;6.80;;;6.10;;
21181;SDS011;10749;46.296;7.524;2023-11-19T03:17:38;9.27;;;6.83;;
21181;SDS011;10749;46.296;7.524;2023-11-19T03:20:08;7.50;;;6.50;;
21181;SDS011;10749;46.296;7.524;2023-11-19T03:22:34;8.77;;;7.10;;
21181;SDS011;10749;46.296;7.524;2023-11-19T03:25:02;7.43;;;6.10;;
21181;SDS011;10749;46.296;7.524;2023-11-19T03:27:27;7.77;;;6.53;;
21181;SDS011;10749;46.296;7.524;2023-11-19T03:29:52;8.17;;;6.73;;
21181;SDS011;10749;46.296;7.524;2023-11-19T03:32:17;9.53;;;6.40;;
21181;SDS011;10749;46.296;7.524;2023-11-19T03:34:43;8.17;;;6.93;;
21181;SDS011;10749;46.296;7.524;2023-11-19T03:37:09;7.43;;;6.30;;
21181;SDS011;10749;46.296;7.524;2023-11-19T03:39:35;8.77;;;7.10;;
21181;SDS011;10749;46.296;7.524;2023-11-19T03:42:00;8.00;;;6.80;;
21181;SDS011;10749;46.296;7.524;2023-11-19T03:44:26;8.27;;;6.73;;
21181;SDS011;10749;46.296;7.524;2023-11-19T03:46:52;9.37;;;6.87;;
21181;SDS011;10749;46.296;7.524;2023-11-19T03:49:17;8.37;;;6.83;;
21181;SDS011;10749;46.296;7.524;2023-11-19T03:51:42;8.57;;;7.03;;
21181;SDS011;10749;46.296;7.524;2023-11-19T03:54:08;9.23;;;7.33;;
21181;SDS011;10749;46.296;7.524;2023-11-19T03:56:33;9.50;;;6.83;;
21181;SDS011;10749;46.296;7.524;2023-11-19T03:58:59;7.27;;;6.47;;
21181;SDS011;10749;46.296;7.524;2023-11-19T04:01:24;7.47;;;6.53;;
21181;SDS011;10749;46.296;7.524;2023-11-19T04:03:49;7.37;;;6.20;;
21181;SDS011;10749;46.296;7.524;2023-11-19T04:06:14;9.50;;;6.00;;
21181;SDS011;10749;46.296;7.524;2023-11-19T04:08:40;9.50;;;6.87;;
21181;SDS011;10749;46.296;7.524;2023-11-19T04:11:06;8.13;;;6.83;;
21181;SDS011;10749;46.296;7.524;2023-11-19T04:13:33;8.50;;;6.80;;
21181;SDS011;10749;46.296;7.524;2023-11-19T04:15:59;8.33;;;6.93;;
21181;SDS011;10749;46.296;7.524;2023-11-19T04:18:24;7.70;;;6.40;;
21181;SDS011;10749;46.296;7.524;2023-11-19T04:20:49;8.27;;;6.87;;
21181;SDS011;10749;46.296;7.524;2023-11-19T04:23:15;8.47;;;6.57;;
21181;SDS011;10749;46.296;7.524;2023-11-19T04:25:41;8.30;;;6.73;;
21181;SDS011;10749;46.296;7.524;2023-11-19T04:28:06;7.47;;;6.50;;
21181;SDS011;10749;46.296;7.524;2023-11-19T04:30:31;8.13;;;6.47;;
21181;SDS011;10749;46.296;7.524;2023-11-19T04:32:57;10.40;;;7.63;;
21181;SDS011;10749;46.296;7.524;2023-11-19T04:35:22;7.67;;;6.47;;
21181;SDS011;10749;46.296;7.524;2023-11-19T04:37:48;9.57;;;7.20;;
21181;SDS011;10749;46.296;7.524;2023-11-19T04:40:13;7.80;;;6.60;;
21181;SDS011;10749;46.296;7.524;2023-11-19T04:42:38;7.90;;;6.17;;
21181;SDS011;10749;46.296;7.524;2023-11-19T04:45:05;8.47;;;6.00;;
21181;SDS011;10749;46.296;7.524;2023-11-19T04:47:31;10.33;;;6.90;;
21181;SDS011;10749;46.296;7.524;2023-11-19T04:49:57;6.67;;;5.97;;
21181;SDS011;10749;46.296;7.524;2023-11-19T04:52:22;6.80;;;6.00;;
21181;SDS011;10749;46.296;7.524;2023-11-19T04:54:48;7.23;;;6.20;;
21181;SDS011;10749;46.296;7.524;2023-11-19T04:57:13;7.97;;;5.97;;
21181;SDS011;10749;46.296;7.524;2023-11-19T04:59:38;8.27;;;6.30;;
21181;SDS011;10749;46.296;7.524;2023-11-19T05:02:04;6.70;;;5.70;;
21181;SDS011;10749;46.296;7.524;2023-11-19T05:04:30;7.50;;;6.13;;
21181;SDS011;10749;46.296;7.524;2023-11-19T05:06:55;7.27;;;6.00;;
21181;SDS011;10749;46.296;7.524;2023-11-19T05:09:21;7.40;;;6.20;;
21181;SDS011;10749;46.296;7.524;2023-11-19T05:11:46;6.43;;;5.43;;
21181;SDS011;10749;46.296;7.524;2023-11-19T05:14:11;7.00;;;6.23;;
21181;SDS011;10749;46.296;7.524;2023-11-19T05:16:39;6.83;;;5.63;;
21181;SDS011;10749;46.296;7.524;2023-11-19T05:19:05;7.10;;;5.87;;
21181;SDS011;10749;46.296;7.524;2023-11-19T05:21:30;6.67;;;5.80;;
21181;SDS011;10749;46.296;7.524;2023-11-19T05:23:55;7.43;;;5.60;;
21181;SDS011;10749;46.296;7.524;2023-11-19T05:26:22;7.57;;;6.27;;
21181;SDS011;10749;46.296;7.524;2023-11-19T05:28:48;7.47;;;5.63;;
21181;SDS011;10749;46.296;7.524;2023-11-19T05:31:14;7.57;;;6.23;;
21181;SDS011;10749;46.296;7.524;2023-11-19T05:33:40;8.63;;;5.87;;
21181;SDS011;10749;46.296;7.524;2023-11-19T05:36:06;6.60;;;5.90;;
21181;SDS011;10749;46.296;7.524;2023-11-19T05:38:33;7.00;;;5.63;;
21181;SDS011;10749;46.296;7.524;2023-11-19T05:40:59;7.40;;;5.63;;
21181;SDS011;10749;46.296;7.524;2023-11-19T05:43:25;7.63;;;6.13;;
21181;SDS011;10749;46.296;7.524;2023-11-19T05:45:50;7.63;;;6.37;;
21181;SDS011;10749;46.296;7.524;2023-11-19T05:48:16;6.70;;;5.50;;
21181;SDS011;10749;46.296;7.524;2023-11-19T05:50:42;6.63;;;5.40;;
21181;SDS011;10749;46.296;7.524;2023-11-19T05:53:07;5.93;;;5.33;;
21181;SDS011;10749;46.296;7.524;2023-11-19T05:55:35;6.73;;;5.27;;
21181;SDS011;10749;46.296;7.524;2023-11-19T05:58:09;7.10;;;5.47;;
21181;SDS011;10749;46.296;7.524;2023-11-19T06:00:37;6.47;;;5.13;;
21181;SDS011;10749;46.296;7.524;2023-11-19T06:03:02;7.30;;;5.33;;
21181;SDS011;10749;46.296;7.524;2023-11-19T06:05:32;5.43;;;4.90;;
21181;SDS011;10749;46.296;7.524;2023-11-19T06:07:57;6.90;;;5.10;;
21181;SDS011;10749;46.296;7.524;2023-11-19T06:10:22;6.70;;;5.63;;
21181;SDS011;10749;46.296;7.524;2023-11-19T06:12:53;6.63;;;5.80;;
21181;SDS011;10749;46.296;7.524;2023-11-19T06:15:21;6.20;;;5.23;;
21181;SDS011;10749;46.296;7.524;2023-11-19T06:17:46;8.03;;;6.43;;
21181;SDS011;10749;46.296;7.524;2023-11-19T06:20:12;8.90;;;5.93;;
21181;SDS011;10749;46.296;7.524;2023-11-19T06:22:39;7.10;;;5.90;;
21181;SDS011;10749;46.296;7.524;2023-11-19T06:25:04;7.97;;;6.33;;
21181;SDS011;10749;46.296;7.524;2023-11-19T06:27:32;6.87;;;5.90;;
21181;SDS011;10749;46.296;7.524;2023-11-19T06:29:57;6.97;;;5.60;;
21181;SDS011;10749;46.296;7.524;2023-11-19T06:32:23;5.80;;;5.03;;
21181;SDS011;10749;46.296;7.524;2023-11-19T06:34:48;6.63;;;5.57;;
21181;SDS011;10749;46.296;7.524;2023-11-19T06:37:13;6.70;;;5.27;;
21181;SDS011;10749;46.296;7.524;2023-11-19T06:39:38;7.87;;;5.70;;
21181;SDS011;10749;46.296;7.524;2023-11-19T06:42:04;6.57;;;5.07;;
21181;SDS011;10749;46.296;7.524;2023-11-19T06:44:29;6.37;;;5.13;;
21181;SDS011;10749;46.296;7.524;2023-11-19T06:46:55;6.17;;;5.07;;
21181;SDS011;10749;46.296;7.524;2023-11-19T06:49:20;6.10;;;5.47;;
21181;SDS011;10749;46.296;7.524;2023-11-19T06:51:45;7.37;;;5.13;;
21181;SDS011;10749;46.296;7.524;2023-11-19T06:54:11;5.97;;;5.27;;
21181;SDS011;10749;46.296;7.524;2023-11-19T06:56:36;7.73;;;5.50;;
21181;SDS011;10749;46.296;7.524;2023-11-19T06:59:02;7.07;;;5.73;;
21181;SDS011;10749;46.296;7.524;2023-11-19T07:01:27;6.50;;;5.30;;
21181;SDS011;10749;46.296;7.524;2023-11-19T07:03:52;7.23;;;5.60;;
21181;SDS011;10749;46.296;7.524;2023-11-19T07:06:18;7.00;;;6.20;;
21181;SDS011;10749;46.296;7.524;2023-11-19T07:08:43;6.97;;;5.97;;
21181;SDS011;10749;46.296;7.524;2023-11-19T07:11:12;8.87;;;6.83;;
21181;SDS011;10749;46.296;7.524;2023-11-19T07:13:40;8.37;;;6.00;;
21181;SDS011;10749;46.296;7.524;2023-11-19T07:16:06;8.83;;;6.37;;
21181;SDS011;10749;46.296;7.524;2023-11-19T07:18:34;10.40;;;7.30;;
21181;SDS011;10749;46.296;7.524;2023-11-19T07:21:00;10.83;;;7.00;;
21181;SDS011;10749;46.296;7.524;2023-11-19T07:23:25;7.87;;;6.50;;
21181;SDS011;10749;46.296;7.524;2023-11-19T07:25:51;7.13;;;6.23;;
21181;SDS011;10749;46.296;7.524;2023-11-19T07:28:18;7.73;;;6.43;;
21181;SDS011;10749;46.296;7.524;2023-11-19T07:30:43;8.03;;;6.30;;
21181;SDS011;10749;46.296;7.524;2023-11-19T07:33:09;7.83;;;6.07;;
21181;SDS011;10749;46.296;7.524;2023-11-19T07:35:34;7.30;;;5.80;;
21181;SDS011;10749;46.296;7.524;2023-11-19T07:38:00;7.63;;;5.83;;
21181;SDS011;10749;46.296;7.524;2023-11-19T07:40:25;6.87;;;6.00;;
21181;SDS011;10749;46.296;7.524;2023-11-19T07:42:50;9.27;;;6.17;;
21181;SDS011;10749;46.296;7.524;2023-11-19T07:45:16;9.40;;;5.83;;
21181;SDS011;10749;46.296;7.524;2023-11-19T07:47:42;5.87;;;5.13;;
21181;SDS011;10749;46.296;7.524;2023-11-19T07:50:09;9.43;;;7.00;;
21181;SDS011;10749;46.296;7.524;2023-11-19T07:52:35;8.93;;;6.37;;
21181;SDS011;10749;46.296;7.524;2023-11-19T07:55:01;7.23;;;5.93;;
21181;SDS011;10749;46.296;7.524;2023-11-19T07:57:27;8.23;;;5.77;;
21181;SDS011;10749;46.296;7.524;2023-11-19T07:59:55;9.73;;;6.20;;
21181;SDS011;10749;46.296;7.524;2023-11-19T08:02:20;8.67;;;6.10;;
21181;SDS011;10749;46.296;7.524;2023-11-19T08:04:46;7.23;;;6.00;;
21181;SDS011;10749;46.296;7.524;2023-11-19T08:07:15;6.30;;;5.70;;
21181;SDS011;10749;46.296;7.524;2023-11-19T08:09:40;5.80;;;5.10;;
21181;SDS011;10749;46.296;7.524;2023-11-19T08:12:05;6.27;;;5.53;;
21181;SDS011;10749;46.296;7.524;2023-11-19T08:14:31;8.13;;;6.60;;
21181;SDS011;10749;46.296;7.524;2023-11-19T08:16:57;8.83;;;6.17;;
21181;SDS011;10749;46.296;7.524;2023-11-19T08:19:23;6.53;;;5.30;;
21181;SDS011;10749;46.296;7.524;2023-11-19T08:21:48;8.00;;;5.70;;
21181;SDS011;10749;46.296;7.524;2023-11-19T08:24:13;5.43;;;4.47;;
21181;SDS011;10749;46.296;7.524;2023-11-19T08:26:39;6.60;;;4.60;;
21181;SDS011;10749;46.296;7.524;2023-11-19T08:29:04;5.33;;;4.50;;
21181;SDS011;10749;46.296;7.524;2023-11-19T08:31:29;7.03;;;4.93;;
21181;SDS011;10749;46.296;7.524;2023-11-19T08:33:55;7.17;;;5.13;;
21181;SDS011;10749;46.296;7.524;2023-11-19T08:36:20;7.27;;;4.93;;
21181;SDS011;10749;46.296;7.524;2023-11-19T08:38:45;6.33;;;5.30;;
21181;SDS011;10749;46.296;7.524;2023-11-19T08:41:11;7.30;;;5.27;;
21181;SDS011;10749;46.296;7.524;2023-11-19T08:43:36;7.70;;;6.27;;
21181;SDS011;10749;46.296;7.524;2023-11-19T08:46:02;7.43;;;5.93;;
21181;SDS011;10749;46.296;7.524;2023-11-19T08:48:28;7.00;;;6.03;;
21181;SDS011;10749;46.296;7.524;2023-11-19T08:50:53;6.93;;;5.53;;
21181;SDS011;10749;46.296;7.524;2023-11-19T08:53:18;6.80;;;5.63;;
21181;SDS011;10749;46.296;7.524;2023-11-19T08:55:44;6.77;;;5.53;;
21181;SDS011;10749;46.296;7.524;2023-11-19T08:58:09;6.87;;;4.67;;
21181;SDS011;10749;46.296;7.524;2023-11-19T09:00:34;7.93;;;4.90;;
21181;SDS011;10749;46.296;7.524;2023-11-19T09:02:59;5.57;;;4.97;;
21181;SDS011;10749;46.296;7.524;2023-11-19T09:05:25;7.20;;;4.77;;
21181;SDS011;10749;46.296;7.524;2023-11-19T09:07:50;7.23;;;5.40;;
21181;SDS011;10749;46.296;7.524;2023-11-19T09:10:15;5.70;;;5.10;;
21181;SDS011;10749;46.296;7.524;2023-11-19T09:12:40;8.57;;;6.37;;
21181;SDS011;10749;46.296;7.524;2023-11-19T09:15:06;8.87;;;6.13;;
21181;SDS011;10749;46.296;7.524;2023-11-19T09:17:32;7.10;;;5.90;;
21181;SDS011;10749;46.296;7.524;2023-11-19T09:19:57;6.63;;;4.83;;
21181;SDS011;10749;46.296;7.524;2023-11-19T09:22:22;6.20;;;5.37;;
21181;SDS011;10749;46.296;7.524;2023-11-19T09:24:47;5.47;;;4.80;;
21181;SDS011;10749;46.296;7.524;2023-11-19T09:27:13;5.73;;;4.60;;
21181;SDS011;10749;46.296;7.524;2023-11-19T09:29:38;5.90;;;4.53;;
21181;SDS011;10749;46.296;7.524;2023-11-19T09:32:03;6.30;;;4.87;;
21181;SDS011;10749;46.296;7.524;2023-11-19T09:34:29;6.97;;;4.37;;
21181;SDS011;10749;46.296;7.524;2023-11-19T09:36:55;5.10;;;4.23;;
21181;SDS011;10749;46.296;7.524;2023-11-19T09:39:20;6.30;;;5.70;;
21181;SDS011;10749;46.296;7.524;2023-11-19T09:41:46;8.03;;;6.30;;
21181;SDS011;10749;46.296;7.524;2023-11-19T09:44:12;7.90;;;5.37;;
21181;SDS011;10749;46.296;7.524;2023-11-19T09:46:38;6.43;;;5.03;;
21181;SDS011;10749;46.296;7.524;2023-11-19T09:49:06;6.97;;;5.30;;
21181;SDS011;10749;46.296;7.524;2023-11-19T09:51:33;7.40;;;5.73;;
21181;SDS011;10749;46.296;7.524;2023-11-19T09:54:01;9.00;;;6.00;;
21181;SDS011;10749;46.296;7.524;2023-11-19T09:56:27;9.23;;;6.60;;
21181;SDS011;10749;46.296;7.524;2023-11-19T09:58:54;8.33;;;6.00;;
21181;SDS011;10749;46.296;7.524;2023-11-19T10:01:19;7.80;;;6.17;;
21181;SDS011;10749;46.296;7.524;2023-11-19T10:03:45;7.90;;;6.00;;
21181;SDS011;10749;46.296;7.524;2023-11-19T10:06:12;6.30;;;5.50;;
21181;SDS011;10749;46.296;7.524;2023-11-19T10:08:40;6.13;;;4.87;;
21181;SDS011;10749;46.296;7.524;2023-11-19T10:11:07;7.37;;;5.50;;
21181;SDS011;10749;46.296;7.524;2023-11-19T10:13:36;6.87;;;5.50;;
21181;SDS011;10749;46.296;7.524;2023-11-19T10:16:08;6.97;;;5.63;;
21181;SDS011;10749;46.296;7.524;2023-11-19T10:18:36;13.07;;;9.80;;
21181;SDS011;10749;46.296;7.524;2023-11-19T10:21:03;14.13;;;11.27;;
21181;SDS011;10749;46.296;7.524;2023-11-19T10:23:31;10.73;;;6.47;;
21181;SDS011;10749;46.296;7.524;2023-11-19T10:26:02;7.10;;;6.27;;
21181;SDS011;10749;46.296;7.524;2023-11-19T10:28:38;7.50;;;6.47;;
21181;SDS011;10749;46.296;7.524;2023-11-19T10:31:04;8.37;;;6.27;;
21181;SDS011;10749;46.296;7.524;2023-11-19T10:33:30;8.33;;;6.40;;
21181;SDS011;10749;46.296;7.524;2023-11-19T10:35:56;6.27;;;5.43;;
21181;SDS011;10749;46.296;7.524;2023-11-19T10:38:23;6.77;;;6.07;;
21181;SDS011;10749;46.296;7.524;2023-11-19T10:40:49;12.83;;;11.53;;
21181;SDS011;10749;46.296;7.524;2023-11-19T10:43:16;9.93;;;7.67;;
21181;SDS011;10749;46.296;7.524;2023-11-19T10:45:42;7.60;;;6.50;;
21181;SDS011;10749;46.296;7.524;2023-11-19T10:48:07;8.13;;;6.37;;
21181;SDS011;10749;46.296;7.524;2023-11-19T10:50:33;6.67;;;5.43;;
21181;SDS011;10749;46.296;7.524;2023-11-19T10:53:00;8.03;;;5.53;;
21181;SDS011;10749;46.296;7.524;2023-11-19T10:55:26;7.93;;;6.33;;
21181;SDS011;10749;46.296;7.524;2023-11-19T10:57:53;7.67;;;5.50;;
21181;SDS011;10749;46.296;7.524;2023-11-19T11:00:30;6.40;;;5.23;;
21181;SDS011;10749;46.296;7.524;2023-11-19T11:03:01;7.93;;;5.77;;
21181;SDS011;10749;46.296;7.524;2023-11-19T11:05:32;6.87;;;5.23;;
21181;SDS011;10749;46.296;7.524;2023-11-19T11:07:58;7.93;;;5.80;;
21181;SDS011;10749;46.296;7.524;2023-11-19T11:10:26;7.50;;;6.03;;
21181;SDS011;10749;46.296;7.524;2023-11-19T11:12:51;8.00;;;5.90;;
21181;SDS011;10749;46.296;7.524;2023-11-19T11:15:24;8.13;;;6.40;;
21181;SDS011;10749;46.296;7.524;2023-11-19T11:17:55;8.50;;;6.53;;
21181;SDS011;10749;46.296;7.524;2023-11-19T11:20:26;7.67;;;6.13;;
21181;SDS011;10749;46.296;7.524;2023-11-19T11:37:44;7.03;;;5.30;;
21181;SDS011;10749;46.296;7.524;2023-11-19T11:40:16;5.80;;;4.73;;
21181;SDS011;10749;46.296;7.524;2023-11-19T11:42:43;6.77;;;4.90;;
21181;SDS011;10749;46.296;7.524;2023-11-19T11:45:12;5.77;;;5.00;;
21181;SDS011;10749;46.296;7.524;2023-11-19T11:50:10;7.33;;;5.40;;
21181;SDS011;10749;46.296;7.524;2023-11-19T11:58:11;7.30;;;5.50;;
21181;SDS011;10749;46.296;7.524;2023-11-19T12:00:38;6.60;;;5.60;;
21181;SDS011;10749;46.296;7.524;2023-11-19T12:03:04;10.00;;;7.63;;
21181;SDS011;10749;46.296;7.524;2023-11-19T12:05:32;12.77;;;8.50;;
21181;SDS011;10749;46.296;7.524;2023-11-19T12:10:29;6.60;;;5.83;;
21181;SDS011;10749;46.296;7.524;2023-11-19T12:12:58;6.93;;;5.87;;
21181;SDS011;10749;46.296;7.524;2023-11-19T12:15:24;7.50;;;6.13;;
21181;SDS011;10749;46.296;7.524;2023-11-19T12:17:51;7.30;;;6.60;;
21181;SDS011;10749;46.296;7.524;2023-11-19T12:20:17;8.03;;;6.33;;
21181;SDS011;10749;46.296;7.524;2023-11-19T12:22:44;7.93;;;5.03;;
21181;SDS011;10749;46.296;7.524;2023-11-19T12:25:11;6.17;;;4.87;;
21181;SDS011;10749;46.296;7.524;2023-11-19T12:27:41;5.70;;;5.00;;
21181;SDS011;10749;46.296;7.524;2023-11-19T12:30:08;6.97;;;5.77;;
21181;SDS011;10749;46.296;7.524;2023-11-19T12:32:40;6.33;;;5.40;;
21181;SDS011;10749;46.296;7.524;2023-11-19T12:35:07;6.47;;;5.03;;
21181;SDS011;10749;46.296;7.524;2023-11-19T12:37:45;5.13;;;4.20;;
21181;SDS011;10749;46.296;7.524;2023-11-19T12:40:15;5.13;;;4.50;;
21181;SDS011;10749;46.296;7.524;2023-11-19T12:42:54;5.63;;;4.30;;
21181;SDS011;10749;46.296;7.524;2023-11-19T12:45:20;5.73;;;4.80;;
21181;SDS011;10749;46.296;7.524;2023-11-19T12:47:47;6.17;;;5.30;;
21181;SDS011;10749;46.296;7.524;2023-11-19T12:50:13;6.17;;;5.47;;
21181;SDS011;10749;46.296;7.524;2023-11-19T12:52:39;7.80;;;6.33;;
21181;SDS011;10749;46.296;7.524;2023-11-19T12:55:05;7.83;;;6.17;;
21181;SDS011;10749;46.296;7.524;2023-11-19T12:57:51;8.63;;;6.77;;
21181;SDS011;10749;46.296;7.524;2023-11-19T13:00:20;8.33;;;6.47;;
21181;SDS011;10749;46.296;7.524;2023-11-19T13:02:47;7.80;;;6.27;;
21181;SDS011;10749;46.296;7.524;2023-11-19T13:05:29;8.63;;;6.30;;
21181;SDS011;10749;46.296;7.524;2023-11-19T13:08:01;11.27;;;9.73;;
21181;SDS011;10749;46.296;7.524;2023-11-19T13:10:26;11.87;;;9.27;;
21181;SDS011;10749;46.296;7.524;2023-11-19T13:13:05;11.47;;;9.30;;
21181;SDS011;10749;46.296;7.524;2023-11-19T13:15:33;8.90;;;6.53;;
21181;SDS011;10749;46.296;7.524;2023-11-19T13:17:59;7.97;;;6.10;;
21181;SDS011;10749;46.296;7.524;2023-11-19T13:20:25;6.80;;;5.90;;
21181;SDS011;10749;46.296;7.524;2023-11-19T13:22:54;7.37;;;5.93;;
21181;SDS011;10749;46.296;7.524;2023-11-19T13:25:23;8.83;;;6.63;;
21181;SDS011;10749;46.296;7.524;2023-11-19T13:27:48;12.80;;;8.50;;
21181;SDS011;10749;46.296;7.524;2023-11-19T13:30:14;6.63;;;5.43;;
21181;SDS011;10749;46.296;7.524;2023-11-19T13:32:40;5.93;;;4.70;;
21181;SDS011;10749;46.296;7.524;2023-11-19T13:35:05;6.87;;;4.73;;
21181;SDS011;10749;46.296;7.524;2023-11-19T13:37:33;5.97;;;4.33;;
21181;SDS011;10749;46.296;7.524;2023-11-19T13:39:59;5.90;;;5.13;;
21181;SDS011;10749;46.296;7.524;2023-11-19T13:42:24;6.30;;;5.23;;
21181;SDS011;10749;46.296;7.524;2023-11-19T13:44:49;8.47;;;6.40;;
21181;SDS011;10749;46.296;7.524;2023-11-19T13:47:15;12.63;;;8.53;;
21181;SDS011;10749;46.296;7.524;2023-11-19T13:49:40;9.57;;;7.40;;
21181;SDS011;10749;46.296;7.524;2023-11-19T13:52:05;8.47;;;6.67;;
21181;SDS011;10749;46.296;7.524;2023-11-19T13:54:30;8.00;;;5.70;;
21181;SDS011;10749;46.296;7.524;2023-11-19T13:56:56;8.43;;;6.53;;
21181;SDS011;10749;46.296;7.524;2023-11-19T13:59:25;9.47;;;6.33;;
21181;SDS011;10749;46.296;7.524;2023-11-19T14:01:54;9.77;;;6.67;;
21181;SDS011;10749;46.296;7.524;2023-11-19T14:04:19;8.13;;;6.03;;
21181;SDS011;10749;46.296;7.524;2023-11-19T14:06:45;10.87;;;6.80;;
21181;SDS011;10749;46.296;7.524;2023-11-19T14:09:10;7.57;;;5.87;;
21181;SDS011;10749;46.296;7.524;2023-11-19T14:11:35;7.67;;;6.60;;
21181;SDS011;10749;46.296;7.524;2023-11-19T14:14:01;9.10;;;6.33;;
21181;SDS011;10749;46.296;7.524;2023-11-19T14:16:26;8.93;;;6.90;;
21181;SDS011;10749;46.296;7.524;2023-11-19T14:18:52;6.57;;;5.50;;
21181;SDS011;10749;46.296;7.524;2023-11-19T14:21:18;7.27;;;6.10;;
21181;SDS011;10749;46.296;7.524;2023-11-19T14:23:43;7.17;;;5.50;;
21181;SDS011;10749;46.296;7.524;2023-11-19T14:26:08;8.23;;;5.60;;
21181;SDS011;10749;46.296;7.524;2023-11-19T14:28:34;7.00;;;5.27;;
21181;SDS011;10749;46.296;7.524;2023-11-19T14:30:59;8.00;;;5.43;;
21181;SDS011;10749;46.296;7.524;2023-11-19T14:33:25;8.20;;;5.53;;
21181;SDS011;10749;46.296;7.524;2023-11-19T14:35:50;7.70;;;6.50;;
21181;SDS011;10749;46.296;7.524;2023-11-19T14:38:16;8.37;;;6.17;;
21181;SDS011;10749;46.296;7.524;2023-11-19T14:40:42;7.43;;;5.90;;
21181;SDS011;10749;46.296;7.524;2023-11-19T14:43:08;7.13;;;6.17;;
21181;SDS011;10749;46.296;7.524;2023-11-19T14:45:35;7.53;;;6.17;;
21181;SDS011;10749;46.296;7.524;2023-11-19T14:48:04;8.60;;;7.07;;
21181;SDS011;10749;46.296;7.524;2023-11-19T14:50:29;9.63;;;8.47;;
21181;SDS011;10749;46.296;7.524;2023-11-19T14:52:54;11.20;;;7.57;;
21181;SDS011;10749;46.296;7.524;2023-11-19T14:55:20;9.77;;;6.67;;
21181;SDS011;10749;46.296;7.524;2023-11-19T14:57:45;9.03;;;6.87;;
21181;SDS011;10749;46.296;7.524;2023-11-19T15:00:11;8.33;;;6.87;;
21181;SDS011;10749;46.296;7.524;2023-11-19T15:02:43;9.00;;;6.93;;
21181;SDS011;10749;46.296;7.524;2023-11-19T15:05:08;7.43;;;6.57;;
21181;SDS011;10749;46.296;7.524;2023-11-19T15:07:38;9.43;;;7.53;;
21181;SDS011;10749;46.296;7.524;2023-11-19T15:10:05;8.77;;;6.67;;